Time;durP1;ratioP1;P1;durP2;ratioP2;P2;SDS_P1;SDS_P2;PMS_P1;PMS_P2;Temp;Humidity;BMP_temperature;BMP_pressure;BME280_temperature;BME280_humidity;BME280_pressure;Samples;Min_cycle;Max_cycle;Signal;HPM_P1;HPM_P2
2022/07/07 00:01:37;;;;;;;1.92;1.10;;;;;;;20.23;50.63;100688.91;5050269;28;20033;-63
2022/07/07 00:04:06;;;;;;;4.03;1.35;;;;;;;20.31;50.39;100681.38;5038680;28;20045;-62
2022/07/07 00:06:31;;;;;;;2.15;1.00;;;;;;;20.46;50.17;100676.94;5025259;28;20037;-63
2022/07/07 00:08:57;;;;;;;2.95;1.17;;;;;;;20.59;49.82;100678.84;5045195;28;20025;-63
2022/07/07 00:11:23;;;;;;;3.88;1.20;;;;;;;20.73;49.47;100672.69;5038549;28;20038;-63
2022/07/07 00:13:49;;;;;;;4.55;0.80;;;;;;;20.73;49.57;100675.34;5048809;28;20025;-62
2022/07/07 00:16:15;;;;;;;2.78;1.20;;;;;;;20.79;49.49;100666.13;5044034;28;20428;-63
2022/07/07 00:18:40;;;;;;;4.57;1.25;;;;;;;20.87;49.08;100664.72;5028396;28;20412;-63
2022/07/07 00:21:09;;;;;;;3.72;1.17;;;;;;;20.91;49.17;100668.94;5038419;28;20037;-63
2022/07/07 00:23:34;;;;;;;3.50;1.30;;;;;;;20.86;49.30;100673.66;5043551;28;20469;-63
2022/07/07 00:26:00;;;;;;;3.95;1.23;;;;;;;20.66;49.57;100671.31;5037986;28;20021;-63
2022/07/07 00:28:25;;;;;;;5.22;1.33;;;;;;;20.70;49.61;100680.00;5044356;28;20029;-63
2022/07/07 00:30:51;;;;;;;4.60;1.67;;;;;;;20.70;49.46;100678.19;5033261;28;20516;-63
2022/07/07 00:33:16;;;;;;;3.53;1.92;;;;;;;20.76;49.42;100672.50;5038263;28;20033;-63
2022/07/07 00:35:42;;;;;;;4.22;1.60;;;;;;;20.63;49.93;100664.38;5050147;28;20444;-63
2022/07/07 00:38:08;;;;;;;3.72;1.70;;;;;;;20.73;49.63;100677.16;5043350;28;20030;-63
2022/07/07 00:40:34;;;;;;;3.55;1.77;;;;;;;20.75;49.79;100669.94;5027620;28;20037;-63
2022/07/07 00:42:59;;;;;;;4.00;2.00;;;;;;;20.96;49.36;100657.09;5046525;28;20040;-63
2022/07/07 00:45:25;;;;;;;3.72;1.92;;;;;;;20.89;49.50;100659.28;5039283;28;20072;-63
2022/07/07 00:47:52;;;;;;;5.40;2.30;;;;;;;20.69;50.01;100664.94;5051042;28;20154;-63
2022/07/07 00:50:19;;;;;;;4.47;2.20;;;;;;;20.61;50.14;100658.25;5048827;28;20029;-63
2022/07/07 00:52:47;;;;;;;5.72;2.05;;;;;;;20.62;50.18;100648.41;5046107;28;20036;-64
2022/07/07 00:55:13;;;;;;;4.97;1.83;;;;;;;20.37;50.54;100643.63;5030377;28;20049;-62
2022/07/07 00:57:39;;;;;;;3.72;2.03;;;;;;;20.39;50.62;100647.09;5039217;28;20036;-63
2022/07/07 01:00:11;;;;;;;4.13;1.83;;;;;;;20.40;50.78;100638.13;5038995;28;20060;-63
2022/07/07 01:02:36;;;;;;;3.30;1.63;;;;;;;20.47;50.39;100636.81;5046352;28;20523;-63
2022/07/07 01:05:04;;;;;;;3.90;1.52;;;;;;;20.53;50.19;100636.47;5035814;28;20156;-63
2022/07/07 01:07:32;;;;;;;5.80;1.98;;;;;;;20.31;50.81;100630.66;5043662;28;20372;-63
2022/07/07 01:09:58;;;;;;;5.13;1.90;;;;;;;20.38;50.73;100632.00;5010248;28;20029;-63
2022/07/07 01:12:24;;;;;;;7.28;2.00;;;;;;;20.32;50.89;100622.56;5043204;28;20047;-63
2022/07/07 01:14:50;;;;;;;3.17;1.50;;;;;;;20.40;50.58;100638.13;5025052;28;20057;-63
2022/07/07 01:17:16;;;;;;;3.83;2.10;;;;;;;20.47;50.50;100635.94;5047932;28;20489;-63
2022/07/07 01:19:41;;;;;;;3.30;1.98;;;;;;;20.51;50.43;100626.88;5025295;28;20041;-63
2022/07/07 01:22:12;;;;;;;4.28;1.90;;;;;;;20.41;50.60;100624.69;5046039;28;20025;-63
2022/07/07 01:24:38;;;;;;;4.78;2.00;;;;;;;20.37;50.71;100627.63;5035650;28;20029;-62
2022/07/07 01:27:20;;;;;;;3.83;1.67;;;;;;;20.48;50.82;100621.66;5038744;28;20042;-63
2022/07/07 01:29:50;;;;;;;2.77;1.67;;;;;;;20.57;50.45;100619.34;5035933;28;20025;-63
2022/07/07 01:32:16;;;;;;;4.88;2.03;;;;;;;20.64;50.28;100611.84;5045889;28;20029;-63
2022/07/07 01:34:45;;;;;;;2.63;1.40;;;;;;;20.60;50.32;100623.66;5044961;28;20033;-63
2022/07/07 01:37:10;;;;;;;3.88;1.58;;;;;;;20.59;50.47;100611.25;5046182;28;20033;-63
2022/07/07 01:39:41;;;;;;;4.22;1.73;;;;;;;20.46;50.59;100612.88;5045079;28;20051;-63
2022/07/07 01:42:07;;;;;;;3.38;1.27;;;;;;;20.40;50.67;100616.78;5045085;28;20075;-63
2022/07/07 01:44:34;;;;;;;3.88;1.20;;;;;;;20.52;50.44;100620.56;5042366;28;20036;-63
2022/07/07 01:47:00;;;;;;;2.10;0.93;;;;;;;20.47;50.34;100601.25;5034076;28;20040;-63
2022/07/07 01:49:27;;;;;;;2.90;0.90;;;;;;;20.47;50.54;100604.81;5041783;28;20090;-63
2022/07/07 01:51:53;;;;;;;2.90;0.80;;;;;;;20.45;50.67;100604.00;5028581;28;20028;-63
2022/07/07 01:54:18;;;;;;;2.03;0.90;;;;;;;20.51;50.34;100602.84;5033309;28;20385;-63
2022/07/07 01:56:45;;;;;;;1.23;0.70;;;;;;;20.55;50.20;100596.38;5044196;28;20086;-63
2022/07/07 01:59:11;;;;;;;3.13;0.95;;;;;;;20.36;50.78;100594.75;5041674;28;20033;-63
2022/07/07 02:01:37;;;;;;;2.67;0.80;;;;;;;20.36;50.83;100602.75;5036704;28;20041;-63
2022/07/07 02:04:03;;;;;;;3.67;0.82;;;;;;;20.28;50.90;100598.81;5024735;28;20111;-62
2022/07/07 02:06:28;;;;;;;2.53;0.63;;;;;;;20.27;50.80;100597.13;5026420;28;20056;-63
2022/07/07 02:08:54;;;;;;;2.55;0.65;;;;;;;20.18;50.99;100594.00;5011797;28;20068;-63
2022/07/07 02:11:22;;;;;;;1.83;0.60;;;;;;;20.18;51.00;100604.69;5042353;28;20067;-63
2022/07/07 02:13:51;;;;;;;2.20;0.73;;;;;;;20.15;51.30;100602.22;5051623;28;20083;-62
2022/07/07 02:16:19;;;;;;;2.03;0.90;;;;;;;20.17;51.29;100594.97;5041259;28;20041;-63
2022/07/07 02:18:46;;;;;;;2.88;1.05;;;;;;;20.24;51.10;100600.81;5036925;28;20029;-63
2022/07/07 02:21:14;;;;;;;2.67;0.77;;;;;;;20.30;50.73;100587.09;5045882;28;20420;-62
2022/07/07 02:23:43;;;;;;;1.67;0.70;;;;;;;20.37;50.46;100590.28;5036404;28;20117;-63
2022/07/07 02:26:08;;;;;;;1.85;0.50;;;;;;;20.33;50.62;100592.25;5037256;28;20033;-63
2022/07/07 02:28:34;;;;;;;1.33;0.57;;;;;;;20.29;50.68;100601.41;5040458;28;20491;-63
2022/07/07 02:30:59;;;;;;;3.15;0.75;;;;;;;20.34;50.47;100588.63;5041167;28;20033;-63
2022/07/07 02:33:26;;;;;;;1.70;0.68;;;;;;;20.31;50.67;100593.31;5041752;28;20029;-62
2022/07/07 02:35:53;;;;;;;1.30;0.50;;;;;;;20.27;50.70;100595.31;5036431;28;20013;-63
2022/07/07 02:38:18;;;;;;;2.95;0.57;;;;;;;20.19;50.92;100597.56;5031572;28;20044;-62
2022/07/07 02:40:47;;;;;;;1.88;0.60;;;;;;;20.25;50.71;100591.84;5027215;28;20036;-62
2022/07/07 02:43:15;;;;;;;1.23;0.68;;;;;;;20.04;51.02;100590.44;5033922;28;20036;-63
2022/07/07 02:45:45;;;;;;;2.78;0.60;;;;;;;20.01;51.18;100588.78;5060870;28;20072;-62
2022/07/07 02:48:12;;;;;;;1.88;0.60;;;;;;;20.02;50.93;100589.66;5038840;28;20079;-62
2022/07/07 02:50:40;;;;;;;3.70;0.77;;;;;;;20.04;51.02;100591.28;5049680;28;20056;-62
2022/07/07 02:53:07;;;;;;;2.80;0.73;;;;;;;20.01;50.80;100579.94;5046883;28;20403;-62
2022/07/07 02:55:33;;;;;;;2.22;0.55;;;;;;;19.98;51.01;100585.44;5048143;28;20420;-62
2022/07/07 02:58:00;;;;;;;3.63;0.82;;;;;;;20.02;50.87;100587.84;5043299;28;20072;-63
2022/07/07 03:00:27;;;;;;;2.40;0.70;;;;;;;20.11;50.54;100583.81;5039386;28;20527;-63
2022/07/07 03:02:53;;;;;;;3.85;0.60;;;;;;;20.12;50.40;100594.38;5030662;28;20435;-62
2022/07/07 03:05:22;;;;;;;3.03;0.60;;;;;;;20.23;50.36;100593.75;5018950;28;20033;-62
2022/07/07 03:07:48;;;;;;;2.35;0.80;;;;;;;20.26;50.47;100593.56;5040306;28;20463;-62
2022/07/07 03:10:14;;;;;;;1.98;0.70;;;;;;;20.18;50.57;100596.66;5044890;28;20033;-63
2022/07/07 03:12:39;;;;;;;1.90;0.60;;;;;;;20.27;50.31;100579.28;5049053;28;20021;-62
2022/07/07 03:15:06;;;;;;;3.05;0.73;;;;;;;20.37;50.15;100585.78;5049810;28;20029;-62
2022/07/07 03:17:31;;;;;;;4.25;0.95;;;;;;;20.42;49.94;100578.34;5019838;28;20487;-62
2022/07/07 03:19:57;;;;;;;1.83;0.70;;;;;;;20.50;49.74;100579.75;5047103;28;20033;-63
2022/07/07 03:22:22;;;;;;;1.63;0.70;;;;;;;20.56;49.52;100574.06;5041240;28;20056;-62
2022/07/07 03:24:47;;;;;;;2.17;0.70;;;;;;;20.50;49.71;100582.41;5041065;28;20052;-62
2022/07/07 03:27:13;;;;;;;3.33;0.80;;;;;;;20.49;49.76;100575.38;5037678;28;20049;-62
2022/07/07 03:29:39;;;;;;;2.45;1.00;;;;;;;20.17;50.36;100581.63;5040326;28;20033;-62
2022/07/07 03:32:05;;;;;;;4.32;0.80;;;;;;;20.35;49.83;100577.03;5030185;28;20068;-63
2022/07/07 03:34:31;;;;;;;2.35;0.80;;;;;;;20.39;49.69;100573.22;5016496;28;20083;-62
2022/07/07 03:36:57;;;;;;;3.92;1.42;;;;;;;20.19;50.32;100576.22;5046208;28;20037;-62
2022/07/07 03:39:25;;;;;;;4.38;1.27;;;;;;;20.33;49.91;100567.38;5041815;28;20040;-62
2022/07/07 03:41:51;;;;;;;3.08;1.10;;;;;;;20.34;49.96;100566.44;5044861;28;20542;-62
2022/07/07 03:44:17;;;;;;;2.80;0.75;;;;;;;20.29;50.23;100571.19;5042949;28;20078;-62
2022/07/07 03:46:42;;;;;;;2.80;0.98;;;;;;;20.13;50.50;100560.56;5040312;28;20037;-62
2022/07/07 03:49:08;;;;;;;2.25;1.00;;;;;;;19.87;50.99;100565.59;5031980;28;20132;-63
2022/07/07 03:51:33;;;;;;;3.72;1.10;;;;;;;19.65;51.58;100571.28;5041372;28;20113;-62
2022/07/07 03:53:59;;;;;;;3.20;0.80;;;;;;;19.82;51.18;100567.66;5042727;28;20184;-63
2022/07/07 03:56:24;;;;;;;5.47;1.20;;;;;;;19.90;51.16;100568.06;5065593;28;20029;-62
2022/07/07 03:58:50;;;;;;;4.03;1.30;;;;;;;20.01;50.63;100562.13;5035002;28;20028;-63
2022/07/07 04:01:15;;;;;;;2.88;1.13;;;;;;;19.92;50.68;100565.34;5060097;28;20434;-63
2022/07/07 04:03:41;;;;;;;2.75;1.20;;;;;;;19.75;51.17;100560.97;5058631;28;20032;-63
2022/07/07 04:06:06;;;;;;;2.55;1.10;;;;;;;19.79;51.20;100565.19;5040637;28;20024;-60
2022/07/07 04:08:32;;;;;;;2.22;0.70;;;;;;;19.72;51.55;100569.13;5068869;28;20123;-62
2022/07/07 04:10:58;;;;;;;3.25;1.13;;;;;;;19.86;51.17;100569.19;5062020;28;20377;-63
2022/07/07 04:13:24;;;;;;;6.15;1.00;;;;;;;20.08;50.74;100571.50;5046934;28;20040;-63
2022/07/07 04:15:50;;;;;;;3.08;0.90;;;;;;;20.19;50.52;100565.53;5059453;28;20029;-63
2022/07/07 04:18:16;;;;;;;1.70;0.70;;;;;;;20.34;50.18;100567.28;5059325;28;20445;-64
2022/07/07 04:20:42;;;;;;;3.05;0.80;;;;;;;20.43;49.60;100563.25;5020453;28;20028;-63
2022/07/07 04:23:09;;;;;;;2.63;1.10;;;;;;;20.45;49.70;100568.47;5046913;28;20109;-63
2022/07/07 04:25:35;;;;;;;3.53;1.02;;;;;;;20.52;49.52;100564.53;5026543;28;20120;-63
2022/07/07 04:28:00;;;;;;;3.03;0.90;;;;;;;20.68;49.15;100557.31;5068955;28;20100;-63
2022/07/07 04:30:26;;;;;;;2.13;0.90;;;;;;;20.85;49.01;100559.78;5039952;28;20357;-63
2022/07/07 04:32:52;;;;;;;3.53;1.00;;;;;;;20.67;49.07;100558.25;5060412;28;20024;-63
2022/07/07 04:35:20;;;;;;;2.22;0.80;;;;;;;20.89;48.56;100555.13;5055989;28;20044;-62
2022/07/07 04:37:48;;;;;;;2.50;0.77;;;;;;;21.00;48.37;100558.00;5023487;28;20059;-62
2022/07/07 04:40:13;;;;;;;4.68;0.98;;;;;;;21.09;48.37;100557.41;5043213;28;20523;-62
2022/07/07 04:42:38;;;;;;;3.78;1.10;;;;;;;21.31;47.88;100554.25;5060568;28;20136;-62
2022/07/07 04:45:04;;;;;;;1.52;0.68;;;;;;;21.48;47.32;100555.03;5053763;28;20115;-63
2022/07/07 04:47:30;;;;;;;1.45;0.55;;;;;;;21.62;47.08;100555.84;5041238;28;20412;-63
2022/07/07 04:49:55;;;;;;;2.97;0.80;;;;;;;21.45;47.25;100558.75;5073693;28;20067;-63
2022/07/07 04:52:21;;;;;;;3.10;0.80;;;;;;;21.66;46.48;100553.81;5073445;28;20399;-63
2022/07/07 04:54:46;;;;;;;3.03;0.60;;;;;;;21.37;47.09;100553.88;5075027;28;20113;-62
2022/07/07 04:57:12;;;;;;;3.65;0.73;;;;;;;21.34;47.40;100550.53;5070155;28;20075;-62
2022/07/07 04:59:37;;;;;;;3.42;0.82;;;;;;;21.46;47.19;100563.13;5067387;28;20037;-63
2022/07/07 05:02:03;;;;;;;4.55;1.00;;;;;;;21.29;47.22;100557.97;5042105;28;20380;-64
2022/07/07 05:04:32;;;;;;;2.95;0.85;;;;;;;21.13;47.60;100552.72;5045813;28;20021;-63
2022/07/07 05:06:57;;;;;;;2.67;0.80;;;;;;;21.31;47.28;100551.59;5051006;28;20036;-61
2022/07/07 05:09:23;;;;;;;3.78;0.75;;;;;;;21.49;46.99;100554.91;5054761;28;20037;-63
2022/07/07 05:11:48;;;;;;;3.83;0.90;;;;;;;21.73;46.53;100541.75;5060960;28;20017;-63
2022/07/07 05:14:14;;;;;;;2.05;0.70;;;;;;;21.43;47.04;100547.31;5053491;28;20248;-63
2022/07/07 05:16:39;;;;;;;1.17;0.60;;;;;;;21.71;46.68;100551.72;5055795;28;20037;-63
2022/07/07 05:19:05;;;;;;;2.05;0.70;;;;;;;21.53;47.03;100553.75;5045604;28;20039;-62
2022/07/07 05:21:30;;;;;;;4.13;0.95;;;;;;;21.42;47.20;100552.72;5070227;28;20379;-63
2022/07/07 05:23:56;;;;;;;2.20;0.60;;;;;;;21.30;47.48;100554.34;5067672;28;20039;-63
2022/07/07 05:26:21;;;;;;;1.63;0.50;;;;;;;21.54;47.19;100542.09;5072524;28;20111;-63
2022/07/07 05:28:46;;;;;;;4.68;0.80;;;;;;;21.61;46.97;100542.56;5082981;28;20055;-63
2022/07/07 05:31:15;;;;;;;2.58;0.63;;;;;;;21.82;46.78;100549.22;5066845;28;20111;-63
2022/07/07 05:33:43;;;;;;;1.23;0.60;;;;;;;22.04;46.37;100553.13;5070491;28;20037;-63
2022/07/07 05:36:10;;;;;;;2.85;0.65;;;;;;;21.96;46.59;100545.59;5055862;28;20119;-63
2022/07/07 05:38:35;;;;;;;2.05;0.70;;;;;;;22.24;45.79;100538.44;5046642;28;20043;-62
2022/07/07 05:41:01;;;;;;;1.50;0.52;;;;;;;22.40;45.67;100541.78;5054332;28;20024;-63
2022/07/07 05:43:27;;;;;;;1.73;0.60;;;;;;;22.07;46.10;100551.09;5073087;28;20116;-63
2022/07/07 05:45:54;;;;;;;2.25;0.63;;;;;;;22.27;45.69;100535.56;5051928;28;20048;-63
2022/07/07 05:48:19;;;;;;;2.35;0.65;;;;;;;22.42;45.51;100537.16;5053897;28;20071;-63
2022/07/07 05:50:45;;;;;;;2.33;0.77;;;;;;;22.48;44.87;100530.56;5073685;28;20044;-63
2022/07/07 05:53:11;;;;;;;2.75;0.57;;;;;;;22.57;44.97;100540.63;5054359;28;20025;-62
2022/07/07 05:55:39;;;;;;;1.67;0.50;;;;;;;22.60;44.79;100533.22;5019993;28;20427;-63
2022/07/07 05:58:05;;;;;;;2.38;0.50;;;;;;;22.70;44.61;100533.47;5038968;28;20091;-63
2022/07/07 06:00:30;;;;;;;4.28;0.57;;;;;;;22.83;44.26;100528.94;5067799;28;20044;-62
2022/07/07 06:02:56;;;;;;;2.50;0.50;;;;;;;23.11;44.03;100529.72;5038823;28;20034;-64
2022/07/07 06:05:22;;;;;;;1.80;0.50;;;;;;;23.45;43.26;100529.94;5059636;28;20109;-63
2022/07/07 06:07:47;;;;;;;4.35;0.80;;;;;;;23.19;43.24;100534.53;5067640;28;20020;-63
2022/07/07 06:10:14;;;;;;;3.00;0.77;;;;;;;23.00;43.87;100540.31;5057227;28;20028;-63
2022/07/07 06:12:40;;;;;;;1.95;0.52;;;;;;;22.91;44.19;100531.13;5026286;28;20109;-63
2022/07/07 06:15:06;;;;;;;1.95;0.50;;;;;;;23.06;43.75;100523.78;5036129;28;20038;-63
2022/07/07 06:17:32;;;;;;;2.35;0.50;;;;;;;23.32;43.30;100529.97;5038221;28;20086;-63
2022/07/07 06:19:58;;;;;;;4.20;0.63;;;;;;;23.41;42.66;100529.31;5062426;28;20028;-62
2022/07/07 06:22:23;;;;;;;2.42;0.57;;;;;;;23.05;42.15;100520.25;5048559;28;20043;-63
2022/07/07 06:24:49;;;;;;;2.38;0.60;;;;;;;22.99;42.63;100515.34;5041891;28;20411;-63
2022/07/07 06:27:14;;;;;;;1.23;0.60;;;;;;;23.42;42.50;100514.06;5038117;28;20048;-63
2022/07/07 06:29:40;;;;;;;2.35;0.40;;;;;;;23.42;42.06;100519.44;5068693;28;20028;-63
2022/07/07 06:32:06;;;;;;;2.70;0.50;;;;;;;22.93;41.89;100513.09;5019646;28;20526;-63
2022/07/07 06:34:31;;;;;;;1.50;0.40;;;;;;;23.19;41.86;100513.94;5035338;28;20031;-63
2022/07/07 06:36:57;;;;;;;1.58;0.50;;;;;;;23.18;42.19;100506.88;5077606;28;20470;-63
2022/07/07 06:39:22;;;;;;;0.85;0.40;;;;;;;23.68;41.35;100505.00;5057753;28;20135;-63
2022/07/07 06:41:48;;;;;;;2.28;0.50;;;;;;;23.73;40.98;100499.28;5031685;28;20032;-63
2022/07/07 06:44:13;;;;;;;1.45;0.50;;;;;;;24.01;40.76;100501.59;5053574;28;20033;-63
2022/07/07 06:46:39;;;;;;;1.33;0.47;;;;;;;24.15;40.01;100503.25;5018992;28;20482;-63
2022/07/07 06:49:06;;;;;;;1.95;0.30;;;;;;;24.54;39.81;100511.94;5059210;28;20036;-65
2022/07/07 06:51:31;;;;;;;0.68;0.20;;;;;;;24.25;39.73;100504.25;5052311;28;20032;-64
2022/07/07 06:53:57;;;;;;;1.05;0.47;;;;;;;24.15;39.89;100502.41;5073080;28;20021;-63
2022/07/07 06:56:23;;;;;;;2.35;0.40;;;;;;;24.53;39.35;100496.75;5041597;28;20041;-63
2022/07/07 06:58:49;;;;;;;1.65;0.40;;;;;;;24.51;38.94;100498.72;5060090;28;20040;-63
2022/07/07 07:01:14;;;;;;;2.92;0.52;;;;;;;24.59;38.98;100509.72;5055345;28;20134;-63
2022/07/07 07:03:40;;;;;;;2.17;0.40;;;;;;;24.41;38.34;100503.09;5042976;28;20491;-63
2022/07/07 07:06:06;;;;;;;2.45;0.40;;;;;;;24.47;38.68;100510.69;5058862;28;20078;-63
2022/07/07 07:08:35;;;;;;;1.40;0.40;;;;;;;24.33;39.25;100501.81;5068094;28;20037;-64
2022/07/07 07:11:02;;;;;;;3.35;0.30;;;;;;;24.74;38.55;100513.06;5055964;28;20094;-64
2022/07/07 07:13:27;;;;;;;2.47;0.47;;;;;;;25.15;38.15;100503.53;5018864;28;20483;-64
2022/07/07 07:15:56;;;;;;;6.53;0.38;;;;;;;24.86;37.92;100505.84;5054755;28;20025;-64
2022/07/07 07:18:21;;;;;;;2.15;0.30;;;;;;;24.97;38.09;100500.44;5055163;28;20033;-64
2022/07/07 07:20:47;;;;;;;2.28;0.30;;;;;;;24.55;38.21;100495.69;5063016;28;20134;-64
2022/07/07 07:23:12;;;;;;;5.35;0.43;;;;;;;24.43;37.51;100512.75;5035307;28;20534;-64
2022/07/07 07:25:38;;;;;;;0.75;0.30;;;;;;;24.56;38.29;100500.06;5042252;28;20059;-64
2022/07/07 07:28:03;;;;;;;2.15;0.28;;;;;;;24.78;37.42;100498.41;5047016;28;20491;-64
2022/07/07 07:30:29;;;;;;;1.75;0.30;;;;;;;25.06;37.81;100495.22;5058001;28;20055;-64
2022/07/07 07:32:54;;;;;;;2.92;0.30;;;;;;;25.24;37.39;100498.25;5063669;28;20035;-64
2022/07/07 07:35:20;;;;;;;1.77;0.40;;;;;;;25.74;36.52;100490.56;5051049;28;20025;-64
2022/07/07 07:37:45;;;;;;;2.55;0.38;;;;;;;26.13;36.04;100493.63;5070661;28;20467;-64
2022/07/07 07:40:12;;;;;;;2.67;0.35;;;;;;;26.51;35.08;100487.66;5054507;28;20032;-64
2022/07/07 07:42:38;;;;;;;2.67;0.40;;;;;;;26.56;35.04;100481.00;5033085;28;20506;-64
2022/07/07 07:45:11;;;;;;;1.85;0.30;;;;;;;26.73;34.98;100474.97;5054004;28;20036;-64
2022/07/07 07:47:47;;;;;;;2.83;0.38;;;;;;;26.35;34.89;100484.53;5049395;28;20032;-63
2022/07/07 07:50:15;;;;;;;1.17;0.40;;;;;;;26.58;35.63;100474.50;5071394;28;20031;-64
2022/07/07 07:52:42;;;;;;;1.13;0.30;;;;;;;26.58;35.46;100487.13;5036476;28;20032;-63
2022/07/07 07:55:09;;;;;;;3.30;0.57;;;;;;;26.48;35.15;100495.13;5040279;28;20496;-64
2022/07/07 07:57:35;;;;;;;2.92;0.30;;;;;;;26.50;35.17;100493.19;5026734;28;20029;-64
2022/07/07 08:00:00;;;;;;;1.55;0.30;;;;;;;26.25;35.47;100495.25;5040009;28;20045;-64
2022/07/07 08:02:26;;;;;;;3.03;0.40;;;;;;;25.75;36.38;100491.41;5039453;28;20087;-66
2022/07/07 08:04:52;;;;;;;1.83;0.35;;;;;;;25.82;36.11;100502.56;5058035;28;20033;-64
2022/07/07 08:07:17;;;;;;;2.03;0.40;;;;;;;25.39;37.17;100492.63;5038726;28;20488;-64
2022/07/07 08:09:44;;;;;;;2.13;0.40;;;;;;;25.48;36.79;100492.72;5033623;28;20037;-63
2022/07/07 08:12:09;;;;;;;1.92;0.32;;;;;;;25.10;37.03;100500.38;5045990;28;20025;-64
2022/07/07 08:14:35;;;;;;;3.38;0.25;;;;;;;25.24;36.81;100495.56;5050286;28;20508;-64
2022/07/07 08:17:00;;;;;;;1.45;0.40;;;;;;;24.91;37.18;100500.97;5050879;28;20045;-64
2022/07/07 08:19:26;;;;;;;2.35;0.30;;;;;;;25.44;36.55;100495.78;5052116;28;20090;-64
2022/07/07 08:21:51;;;;;;;0.50;0.20;;;;;;;25.78;36.10;100499.28;5042350;28;20026;-64
2022/07/07 08:24:17;;;;;;;5.68;0.73;;;;;;;25.56;36.30;100500.16;5040489;28;20441;-64
2022/07/07 08:26:44;;;;;;;1.75;0.20;;;;;;;25.66;36.29;100502.97;5044556;28;20086;-64
2022/07/07 08:29:10;;;;;;;4.40;0.30;;;;;;;25.73;35.58;100505.00;5038925;28;20071;-65
2022/07/07 08:31:35;;;;;;;1.33;0.32;;;;;;;25.98;34.96;100503.00;5034391;28;20128;-64
2022/07/07 08:34:01;;;;;;;1.67;0.35;;;;;;;26.12;35.15;100505.34;5045008;28;20400;-64
2022/07/07 08:36:26;;;;;;;1.00;0.30;;;;;;;26.23;34.88;100507.97;5044372;28;20059;-64
2022/07/07 08:38:52;;;;;;;5.05;0.35;;;;;;;26.49;34.54;100504.91;5043202;28;20030;-64
2022/07/07 08:41:18;;;;;;;1.05;0.28;;;;;;;26.42;34.69;100501.03;5033934;28;20083;-64
2022/07/07 08:43:46;;;;;;;1.88;0.40;;;;;;;26.38;34.29;100496.91;5054882;28;20033;-64
2022/07/07 08:46:12;;;;;;;1.50;0.40;;;;;;;26.41;34.83;100493.91;5052506;28;20452;-64
2022/07/07 08:48:38;;;;;;;3.28;0.90;;;;;;;26.05;34.59;100496.06;5037782;28;20034;-64
2022/07/07 08:51:04;;;;;;;2.10;0.60;;;;;;;25.87;35.28;100490.41;5035080;28;20080;-64
2022/07/07 08:53:37;;;;;;;4.05;0.40;;;;;;;26.12;34.54;100489.19;5047772;28;20040;-64
2022/07/07 08:56:07;;;;;;;1.48;0.35;;;;;;;26.22;34.74;100491.97;5036708;28;20097;-64
2022/07/07 08:58:35;;;;;;;3.72;0.50;;;;;;;26.57;33.89;100483.59;5054472;28;20021;-64
2022/07/07 09:01:06;;;;;;;0.90;0.32;;;;;;;26.59;33.28;100481.59;5033096;28;20040;-64
2022/07/07 09:03:32;;;;;;;3.22;0.45;;;;;;;26.70;33.48;100489.59;5053908;28;20029;-64
2022/07/07 09:05:58;;;;;;;1.98;0.50;;;;;;;25.96;34.26;100483.41;5054331;28;20090;-64
2022/07/07 09:08:26;;;;;;;2.67;0.32;;;;;;;25.71;34.06;100489.97;5054824;28;20036;-64
2022/07/07 09:10:52;;;;;;;2.63;0.40;;;;;;;26.09;34.29;100480.53;5052788;28;20067;-64
2022/07/07 09:13:25;;;;;;;4.57;0.60;;;;;;;26.36;33.81;100474.63;5034070;28;20060;-64
2022/07/07 09:15:52;;;;;;;1.33;0.50;;;;;;;26.82;33.44;100470.66;5066533;28;20026;-64
2022/07/07 09:18:37;;;;;;;2.05;0.60;;;;;;;26.47;33.06;100470.03;5038914;28;20380;-64
2022/07/07 09:21:06;;;;;;;0.95;0.30;;;;;;;26.84;33.02;100463.25;5048797;28;20047;-64
2022/07/07 09:23:33;;;;;;;2.22;0.50;;;;;;;26.93;32.96;100475.91;5034151;28;20029;-64
2022/07/07 09:25:59;;;;;;;1.75;0.40;;;;;;;27.01;33.12;100476.97;5036176;28;20060;-64
2022/07/07 09:28:26;;;;;;;4.55;0.40;;;;;;;27.17;32.61;100471.09;5036466;28;20048;-64
2022/07/07 09:30:53;;;;;;;2.03;0.40;;;;;;;27.31;32.54;100464.44;5039815;28;20037;-64
2022/07/07 09:33:23;;;;;;;2.03;0.40;;;;;;;27.53;31.88;100466.03;5048198;28;20029;-64
2022/07/07 09:38:36;;;;;;;1.48;0.50;;;;;;;26.60;32.61;100466.28;5050358;28;20491;-64
2022/07/07 09:41:04;;;;;;;1.25;0.55;;;;;;;26.53;32.62;100465.94;5036962;28;20060;-64
2022/07/07 09:43:36;;;;;;;1.05;0.40;;;;;;;26.69;32.18;100465.47;5042616;28;20391;-64
2022/07/07 09:46:05;;;;;;;1.15;0.30;;;;;;;27.00;32.30;100460.91;5054578;28;20083;-64
2022/07/07 09:48:32;;;;;;;3.72;0.32;;;;;;;26.77;32.53;100463.81;5049055;28;20037;-64
2022/07/07 09:51:11;;;;;;;1.50;0.30;;;;;;;26.65;32.64;100467.59;5048750;28;20491;-64
2022/07/07 09:54:05;;;;;;;3.05;0.38;;;;;;;27.17;31.88;100462.13;5032786;28;20473;-64
2022/07/07 09:56:35;;;;;;;4.72;0.70;;;;;;;26.92;32.77;100461.59;5037286;28;20071;-64
2022/07/07 09:59:03;;;;;;;2.15;0.32;;;;;;;26.53;33.18;100461.44;5033338;28;20549;-64
2022/07/07 10:01:31;;;;;;;2.40;0.60;;;;;;;26.87;32.96;100465.69;5037076;28;20029;-64
2022/07/07 10:03:59;;;;;;;2.40;0.40;;;;;;;27.22;32.38;100459.88;5016780;28;20455;-65
2022/07/07 10:06:27;;;;;;;1.08;0.40;;;;;;;27.09;32.59;100465.50;5052910;28;20050;-64
2022/07/07 10:09:00;;;;;;;1.00;0.30;;;;;;;26.94;32.63;100465.00;5054347;28;20024;-64
2022/07/07 10:11:45;;;;;;;1.05;0.43;;;;;;;26.85;32.97;100459.56;5050651;28;20480;-64
2022/07/07 10:14:17;;;;;;;2.45;0.63;;;;;;;26.61;33.57;100459.88;5053515;28;20051;-64
2022/07/07 10:16:45;;;;;;;3.47;0.50;;;;;;;26.91;33.24;100470.66;5052740;28;20029;-64
2022/07/07 10:19:12;;;;;;;1.65;0.45;;;;;;;27.26;32.92;100459.47;5052677;28;20119;-64
2022/07/07 10:21:41;;;;;;;2.40;0.40;;;;;;;27.24;32.66;100455.19;5052388;28;20419;-64
2022/07/07 10:24:11;;;;;;;1.92;0.60;;;;;;;27.42;32.65;100455.38;5054178;28;20025;-64
2022/07/07 10:26:42;;;;;;;3.45;0.60;;;;;;;27.34;32.81;100463.31;5047629;28;20037;-64
2022/07/07 10:29:09;;;;;;;3.15;0.50;;;;;;;27.90;32.31;100458.13;5053757;28;20025;-64
2022/07/07 10:31:36;;;;;;;3.53;0.60;;;;;;;27.36;32.91;100458.63;5036028;28;20112;-64
2022/07/07 10:34:10;;;;;;;0.93;0.50;;;;;;;27.13;33.11;100471.47;5052358;28;20460;-64
2022/07/07 10:36:50;;;;;;;3.28;0.50;;;;;;;27.45;32.52;100460.50;5052723;28;20036;-64
2022/07/07 10:39:20;;;;;;;1.55;0.50;;;;;;;26.74;34.11;100469.47;5053140;28;20032;-64
2022/07/07 10:42:04;;;;;;;0.95;0.32;;;;;;;26.98;33.77;100462.91;5051992;28;20033;-64
2022/07/07 10:44:32;;;;;;;3.15;0.47;;;;;;;27.43;33.27;100463.31;5053278;28;20075;-64
2022/07/07 10:47:16;;;;;;;2.38;0.57;;;;;;;27.45;33.15;100464.03;5052267;28;20475;-64
2022/07/07 10:49:43;;;;;;;3.70;0.45;;;;;;;27.75;32.84;100460.38;5053773;28;20029;-64
2022/07/07 10:52:14;;;;;;;1.77;0.40;;;;;;;27.88;32.82;100459.25;5052292;28;20025;-64
2022/07/07 10:54:45;;;;;;;1.85;0.50;;;;;;;28.12;32.41;100454.25;5052069;28;20407;-64
2022/07/07 10:57:14;;;;;;;2.45;0.52;;;;;;;27.85;32.70;100459.53;5052188;28;20041;-64
2022/07/07 10:59:59;;;;;;;2.92;0.50;;;;;;;27.71;32.54;100466.19;5053381;28;20083;-64
2022/07/07 11:02:40;;;;;;;4.90;0.47;;;;;;;27.29;33.19;100458.34;5039844;28;20021;-64
2022/07/07 11:05:27;;;;;;;3.55;0.50;;;;;;;27.63;32.85;100456.09;5052048;28;20051;-64
2022/07/07 11:07:56;;;;;;;1.10;0.47;;;;;;;28.14;32.24;100460.38;5067092;28;20090;-64
2022/07/07 11:10:23;;;;;;;1.33;0.40;;;;;;;28.32;31.79;100457.75;5066040;28;20025;-64
2022/07/07 11:12:52;;;;;;;2.10;0.45;;;;;;;28.35;32.06;100460.19;5052050;28;20032;-64
2022/07/07 11:15:21;;;;;;;2.63;0.57;;;;;;;28.23;32.13;100464.88;5052048;28;20028;-64
2022/07/07 11:18:09;;;;;;;1.02;0.40;;;;;;;27.73;32.53;100462.41;5050295;28;20095;-64
2022/07/07 11:20:36;;;;;;;2.35;0.50;;;;;;;27.47;33.42;100455.78;5071282;28;20021;-64
2022/07/07 11:23:10;;;;;;;1.25;0.50;;;;;;;27.39;33.54;100461.03;5072116;28;20028;-64
2022/07/07 11:25:37;;;;;;;1.00;0.30;;;;;;;27.62;33.34;100462.50;5073540;28;20353;-64
2022/07/07 11:28:05;;;;;;;1.00;0.47;;;;;;;27.45;33.15;100482.06;5048184;28;20031;-64